sensor_id;sensor_type;location;lat;lon;timestamp;pressure;altitude;pressure_sealevel;temperature;humidity
11710;BME280;5911;51.036;6.972;2023-04-20T00:00:34;101173.75;;;11.85;47.57
11710;BME280;5911;51.036;6.972;2023-04-20T00:03:03;101168.34;;;11.87;48.29
11710;BME280;5911;51.036;6.972;2023-04-20T00:05:32;101167.25;;;11.89;47.86
11710;BME280;5911;51.036;6.972;2023-04-20T00:08:00;101169.19;;;11.87;47.44
11710;BME280;5911;51.036;6.972;2023-04-20T00:10:28;101162.69;;;11.80;47.79
11710;BME280;5911;51.036;6.972;2023-04-20T00:12:56;101166.88;;;11.83;46.97
11710;BME280;5911;51.036;6.972;2023-04-20T00:15:24;101161.59;;;11.83;47.48
11710;BME280;5911;51.036;6.972;2023-04-20T00:17:51;101154.13;;;11.77;46.98
11710;BME280;5911;51.036;6.972;2023-04-20T00:20:21;101155.69;;;11.79;47.90
11710;BME280;5911;51.036;6.972;2023-04-20T00:22:49;101146.69;;;11.82;46.93
11710;BME280;5911;51.036;6.972;2023-04-20T00:25:16;101140.56;;;11.81;47.15
11710;BME280;5911;51.036;6.972;2023-04-20T00:27:44;101130.59;;;11.85;48.36
11710;BME280;5911;51.036;6.972;2023-04-20T00:30:13;101129.03;;;11.82;47.23
11710;BME280;5911;51.036;6.972;2023-04-20T00:32:40;101131.31;;;11.87;47.51
11710;BME280;5911;51.036;6.972;2023-04-20T00:35:09;101126.88;;;11.87;48.52
11710;BME280;5911;51.036;6.972;2023-04-20T00:37:38;101118.47;;;11.82;46.53
11710;BME280;5911;51.036;6.972;2023-04-20T00:40:07;101114.13;;;11.81;46.61
11710;BME280;5911;51.036;6.972;2023-04-20T00:42:35;101111.97;;;11.86;47.21
11710;BME280;5911;51.036;6.972;2023-04-20T00:45:04;101111.38;;;11.83;47.46
11710;BME280;5911;51.036;6.972;2023-04-20T00:47:32;101107.88;;;11.82;46.96
11710;BME280;5911;51.036;6.972;2023-04-20T00:50:01;101107.16;;;11.80;47.22
11710;BME280;5911;51.036;6.972;2023-04-20T00:52:30;101104.53;;;11.80;46.45
11710;BME280;5911;51.036;6.972;2023-04-20T00:54:59;101099.25;;;11.80;46.76
11710;BME280;5911;51.036;6.972;2023-04-20T00:57:29;101087.94;;;11.78;46.83
11710;BME280;5911;51.036;6.972;2023-04-20T00:59:59;101093.72;;;11.83;48.21
11710;BME280;5911;51.036;6.972;2023-04-20T01:02:27;101087.59;;;11.83;48.06
11710;BME280;5911;51.036;6.972;2023-04-20T01:04:55;101080.38;;;11.85;47.42
11710;BME280;5911;51.036;6.972;2023-04-20T01:07:23;101073.06;;;11.88;49.66
11710;BME280;5911;51.036;6.972;2023-04-20T01:09:51;101077.38;;;11.89;49.05
11710;BME280;5911;51.036;6.972;2023-04-20T01:12:20;101077.63;;;11.86;48.54
11710;BME280;5911;51.036;6.972;2023-04-20T01:14:48;101066.31;;;11.84;48.61
11710;BME280;5911;51.036;6.972;2023-04-20T01:17:17;101069.19;;;11.81;48.45
11710;BME280;5911;51.036;6.972;2023-04-20T01:19:45;101069.69;;;11.75;49.61
11710;BME280;5911;51.036;6.972;2023-04-20T01:22:16;101063.53;;;11.75;49.87
11710;BME280;5911;51.036;6.972;2023-04-20T01:24:44;101066.53;;;11.70;49.64
11710;BME280;5911;51.036;6.972;2023-04-20T01:27:13;101065.59;;;11.71;49.32
11710;BME280;5911;51.036;6.972;2023-04-20T01:29:42;101057.16;;;11.66;49.38
11710;BME280;5911;51.036;6.972;2023-04-20T01:32:11;101056.09;;;11.69;50.11
11710;BME280;5911;51.036;6.972;2023-04-20T01:34:40;101049.47;;;11.63;50.87
11710;BME280;5911;51.036;6.972;2023-04-20T01:37:08;101044.69;;;11.57;50.92
11710;BME280;5911;51.036;6.972;2023-04-20T01:39:39;101051.91;;;11.55;51.25
11710;BME280;5911;51.036;6.972;2023-04-20T01:42:08;101038.94;;;11.52;52.52
11710;BME280;5911;51.036;6.972;2023-04-20T01:44:35;101053.59;;;11.56;52.46
11710;BME280;5911;51.036;6.972;2023-04-20T01:47:03;101050.22;;;11.54;51.74
11710;BME280;5911;51.036;6.972;2023-04-20T01:49:31;101046.38;;;11.58;52.32
11710;BME280;5911;51.036;6.972;2023-04-20T01:51:59;101049.13;;;11.56;52.96
11710;BME280;5911;51.036;6.972;2023-04-20T01:54:27;101040.72;;;11.51;52.74
11710;BME280;5911;51.036;6.972;2023-04-20T01:56:56;101039.66;;;11.54;51.51
11710;BME280;5911;51.036;6.972;2023-04-20T01:59:24;101031.50;;;11.57;50.70
11710;BME280;5911;51.036;6.972;2023-04-20T02:01:52;101033.38;;;11.66;52.32
11710;BME280;5911;51.036;6.972;2023-04-20T02:04:20;101022.09;;;11.64;52.74
11710;BME280;5911;51.036;6.972;2023-04-20T02:06:48;101024.16;;;11.72;53.42
11710;BME280;5911;51.036;6.972;2023-04-20T02:09:15;101024.50;;;11.67;54.55
11710;BME280;5911;51.036;6.972;2023-04-20T02:11:43;101017.06;;;11.72;54.59
11710;BME280;5911;51.036;6.972;2023-04-20T02:14:12;101009.97;;;11.73;54.24
11710;BME280;5911;51.036;6.972;2023-04-20T02:16:40;101000.25;;;11.73;55.05
11710;BME280;5911;51.036;6.972;2023-04-20T02:19:09;100992.78;;;11.67;55.23
11710;BME280;5911;51.036;6.972;2023-04-20T02:21:37;100995.22;;;11.59;54.33
11710;BME280;5911;51.036;6.972;2023-04-20T02:24:05;100994.72;;;11.65;54.49
11710;BME280;5911;51.036;6.972;2023-04-20T02:26:33;100988.97;;;11.60;55.69
11710;BME280;5911;51.036;6.972;2023-04-20T02:29:01;100987.97;;;11.61;55.00
11710;BME280;5911;51.036;6.972;2023-04-20T02:31:30;100981.75;;;11.62;53.27
11710;BME280;5911;51.036;6.972;2023-04-20T02:33:57;100972.41;;;11.58;53.89
11710;BME280;5911;51.036;6.972;2023-04-20T02:36:26;100970.25;;;11.52;52.91
11710;BME280;5911;51.036;6.972;2023-04-20T02:38:53;100978.03;;;11.53;53.82
11710;BME280;5911;51.036;6.972;2023-04-20T02:41:22;100964.84;;;11.53;53.14
11710;BME280;5911;51.036;6.972;2023-04-20T02:43:50;100965.44;;;11.57;53.14
11710;BME280;5911;51.036;6.972;2023-04-20T02:46:17;100961.00;;;11.57;51.84
11710;BME280;5911;51.036;6.972;2023-04-20T02:48:47;100951.50;;;11.55;52.86
11710;BME280;5911;51.036;6.972;2023-04-20T02:51:15;100954.06;;;11.45;51.73
11710;BME280;5911;51.036;6.972;2023-04-20T02:53:44;100950.31;;;11.48;51.98
11710;BME280;5911;51.036;6.972;2023-04-20T02:56:24;100946.59;;;11.50;51.54
11710;BME280;5911;51.036;6.972;2023-04-20T02:58:55;100945.53;;;11.42;49.32
11710;BME280;5911;51.036;6.972;2023-04-20T03:01:27;100948.63;;;11.47;49.98
11710;BME280;5911;51.036;6.972;2023-04-20T03:04:04;100947.66;;;11.48;50.45
11710;BME280;5911;51.036;6.972;2023-04-20T03:06:36;100940.84;;;11.45;50.67
11710;BME280;5911;51.036;6.972;2023-04-20T03:09:09;100946.38;;;11.42;49.82
11710;BME280;5911;51.036;6.972;2023-04-20T03:11:53;100942.88;;;11.42;49.23
11710;BME280;5911;51.036;6.972;2023-04-20T03:14:40;100942.41;;;11.37;48.51
11710;BME280;5911;51.036;6.972;2023-04-20T03:17:08;100947.69;;;11.37;48.25
11710;BME280;5911;51.036;6.972;2023-04-20T03:19:37;100944.94;;;11.38;48.12
11710;BME280;5911;51.036;6.972;2023-04-20T03:22:05;100939.88;;;11.35;47.74
11710;BME280;5911;51.036;6.972;2023-04-20T03:24:34;100945.03;;;11.37;47.71
11710;BME280;5911;51.036;6.972;2023-04-20T03:27:11;100936.78;;;11.30;47.80
11710;BME280;5911;51.036;6.972;2023-04-20T03:29:50;100939.16;;;11.33;48.20
11710;BME280;5911;51.036;6.972;2023-04-20T03:32:18;100934.00;;;11.32;48.15
11710;BME280;5911;51.036;6.972;2023-04-20T03:34:49;100933.03;;;11.33;49.54
11710;BME280;5911;51.036;6.972;2023-04-20T03:37:17;100931.25;;;11.33;49.60
11710;BME280;5911;51.036;6.972;2023-04-20T03:39:46;100936.63;;;11.32;50.67
11710;BME280;5911;51.036;6.972;2023-04-20T03:42:14;100934.72;;;11.34;50.47
11710;BME280;5911;51.036;6.972;2023-04-20T03:44:42;100929.56;;;11.32;50.57
11710;BME280;5911;51.036;6.972;2023-04-20T03:47:10;100928.72;;;11.32;51.02
11710;BME280;5911;51.036;6.972;2023-04-20T03:49:38;100923.44;;;11.32;50.39
11710;BME280;5911;51.036;6.972;2023-04-20T03:52:07;100914.56;;;11.33;52.32
11710;BME280;5911;51.036;6.972;2023-04-20T03:54:35;100917.59;;;11.28;51.65
11710;BME280;5911;51.036;6.972;2023-04-20T03:57:03;100910.50;;;11.28;51.83
11710;BME280;5911;51.036;6.972;2023-04-20T03:59:31;100919.25;;;11.29;51.90
11710;BME280;5911;51.036;6.972;2023-04-20T04:02:01;100911.34;;;11.29;52.04
11710;BME280;5911;51.036;6.972;2023-04-20T04:04:31;100914.22;;;11.26;50.65
11710;BME280;5911;51.036;6.972;2023-04-20T04:06:59;100910.97;;;11.22;51.06
11710;BME280;5911;51.036;6.972;2023-04-20T04:09:28;100912.53;;;11.25;51.82
11710;BME280;5911;51.036;6.972;2023-04-20T04:11:56;100915.28;;;11.23;52.41
11710;BME280;5911;51.036;6.972;2023-04-20T04:14:27;100909.06;;;11.24;51.23
11710;BME280;5911;51.036;6.972;2023-04-20T04:16:56;100909.78;;;11.26;51.13
11710;BME280;5911;51.036;6.972;2023-04-20T04:19:24;100905.34;;;11.27;50.63
11710;BME280;5911;51.036;6.972;2023-04-20T04:21:52;100909.53;;;11.30;52.66
11710;BME280;5911;51.036;6.972;2023-04-20T04:24:19;100899.22;;;11.26;54.00
11710;BME280;5911;51.036;6.972;2023-04-20T04:27:05;100904.81;;;11.33;53.75
11710;BME280;5911;51.036;6.972;2023-04-20T04:29:38;100899.81;;;11.30;55.12
11710;BME280;5911;51.036;6.972;2023-04-20T04:32:12;100901.75;;;11.28;53.97
11710;BME280;5911;51.036;6.972;2023-04-20T04:34:40;100898.38;;;11.26;54.03
11710;BME280;5911;51.036;6.972;2023-04-20T04:37:11;100895.84;;;11.24;54.27
11710;BME280;5911;51.036;6.972;2023-04-20T04:39:45;100887.09;;;11.24;55.21
11710;BME280;5911;51.036;6.972;2023-04-20T04:42:25;100896.94;;;11.22;54.41
11710;BME280;5911;51.036;6.972;2023-04-20T04:44:53;100894.53;;;11.19;54.04
11710;BME280;5911;51.036;6.972;2023-04-20T04:47:28;100888.91;;;11.12;53.02
11710;BME280;5911;51.036;6.972;2023-04-20T04:49:56;100895.88;;;11.13;52.93
11710;BME280;5911;51.036;6.972;2023-04-20T04:52:27;100895.38;;;11.19;54.71
11710;BME280;5911;51.036;6.972;2023-04-20T04:54:55;100891.78;;;11.20;55.36
11710;BME280;5911;51.036;6.972;2023-04-20T04:57:23;100891.16;;;11.28;57.27
11710;BME280;5911;51.036;6.972;2023-04-20T04:59:52;100880.50;;;11.30;59.47
11710;BME280;5911;51.036;6.972;2023-04-20T05:02:20;100890.06;;;11.31;63.30
11710;BME280;5911;51.036;6.972;2023-04-20T05:04:48;100882.53;;;11.26;62.58
11710;BME280;5911;51.036;6.972;2023-04-20T05:07:16;100887.69;;;11.16;67.96
11710;BME280;5911;51.036;6.972;2023-04-20T05:09:44;100886.50;;;11.09;70.55
11710;BME280;5911;51.036;6.972;2023-04-20T05:12:12;100884.34;;;11.03;74.59
11710;BME280;5911;51.036;6.972;2023-04-20T05:14:40;100889.84;;;11.00;76.98
11710;BME280;5911;51.036;6.972;2023-04-20T05:17:09;100883.63;;;11.01;79.22
11710;BME280;5911;51.036;6.972;2023-04-20T05:19:37;100884.13;;;10.95;79.30
11710;BME280;5911;51.036;6.972;2023-04-20T05:22:05;100882.44;;;10.94;79.44
11710;BME280;5911;51.036;6.972;2023-04-20T05:24:33;100875.50;;;10.93;81.25
11710;BME280;5911;51.036;6.972;2023-04-20T05:27:01;100878.84;;;10.95;79.42
11710;BME280;5911;51.036;6.972;2023-04-20T05:29:29;100880.53;;;10.96;82.02
11710;BME280;5911;51.036;6.972;2023-04-20T05:31:57;100880.41;;;10.98;84.59
11710;BME280;5911;51.036;6.972;2023-04-20T05:34:27;100878.72;;;10.97;84.43
11710;BME280;5911;51.036;6.972;2023-04-20T05:36:56;100883.78;;;11.00;85.89
11710;BME280;5911;51.036;6.972;2023-04-20T05:39:24;100882.78;;;11.01;88.39
11710;BME280;5911;51.036;6.972;2023-04-20T05:41:52;100873.06;;;11.01;87.23
11710;BME280;5911;51.036;6.972;2023-04-20T05:44:20;100874.75;;;11.02;86.82
11710;BME280;5911;51.036;6.972;2023-04-20T05:46:48;100876.94;;;10.97;85.19
11710;BME280;5911;51.036;6.972;2023-04-20T05:49:16;100873.22;;;11.00;87.38
11710;BME280;5911;51.036;6.972;2023-04-20T05:51:46;100879.78;;;11.05;88.63
11710;BME280;5911;51.036;6.972;2023-04-20T05:54:13;100885.06;;;11.05;89.32
11710;BME280;5911;51.036;6.972;2023-04-20T05:56:41;100878.34;;;11.01;87.58
11710;BME280;5911;51.036;6.972;2023-04-20T05:59:09;100882.94;;;10.99;86.99
11710;BME280;5911;51.036;6.972;2023-04-20T06:01:37;100884.94;;;11.07;89.70
11710;BME280;5911;51.036;6.972;2023-04-20T06:04:05;100877.88;;;11.07;87.09
11710;BME280;5911;51.036;6.972;2023-04-20T06:06:33;100878.47;;;11.11;86.04
11710;BME280;5911;51.036;6.972;2023-04-20T06:09:02;100874.28;;;11.08;84.42
11710;BME280;5911;51.036;6.972;2023-04-20T06:11:30;100876.78;;;11.10;84.38
11710;BME280;5911;51.036;6.972;2023-04-20T06:13:58;100878.59;;;11.09;83.73
11710;BME280;5911;51.036;6.972;2023-04-20T06:16:26;100877.63;;;11.10;83.10
11710;BME280;5911;51.036;6.972;2023-04-20T06:18:54;100873.06;;;11.12;86.51
11710;BME280;5911;51.036;6.972;2023-04-20T06:21:22;100871.41;;;11.11;84.22
11710;BME280;5911;51.036;6.972;2023-04-20T06:23:52;100866.72;;;11.04;81.03
11710;BME280;5911;51.036;6.972;2023-04-20T06:26:22;100871.50;;;11.10;82.90
11710;BME280;5911;51.036;6.972;2023-04-20T06:28:50;100870.69;;;11.09;82.97
11710;BME280;5911;51.036;6.972;2023-04-20T06:31:18;100870.56;;;11.11;83.99
11710;BME280;5911;51.036;6.972;2023-04-20T06:33:46;100864.19;;;11.13;86.36
11710;BME280;5911;51.036;6.972;2023-04-20T06:36:14;100872.22;;;11.12;85.10
11710;BME280;5911;51.036;6.972;2023-04-20T06:38:42;100866.44;;;11.18;86.23
11710;BME280;5911;51.036;6.972;2023-04-20T06:41:11;100868.25;;;11.17;84.92
11710;BME280;5911;51.036;6.972;2023-04-20T06:43:40;100860.72;;;11.13;82.16
11710;BME280;5911;51.036;6.972;2023-04-20T06:46:10;100868.53;;;11.14;85.28
11710;BME280;5911;51.036;6.972;2023-04-20T06:48:38;100865.72;;;11.16;85.45
11710;BME280;5911;51.036;6.972;2023-04-20T06:51:06;100859.38;;;11.18;87.24
11710;BME280;5911;51.036;6.972;2023-04-20T06:53:33;100860.31;;;11.17;86.24
11710;BME280;5911;51.036;6.972;2023-04-20T06:56:01;100856.28;;;11.13;87.48
11710;BME280;5911;51.036;6.972;2023-04-20T06:58:29;100852.16;;;11.20;90.81
11710;BME280;5911;51.036;6.972;2023-04-20T07:00:58;100859.13;;;11.21;93.61
11710;BME280;5911;51.036;6.972;2023-04-20T07:03:26;100857.69;;;11.17;94.02
11710;BME280;5911;51.036;6.972;2023-04-20T07:05:54;100856.59;;;11.20;93.32
11710;BME280;5911;51.036;6.972;2023-04-20T07:08:22;100858.28;;;11.21;92.19
11710;BME280;5911;51.036;6.972;2023-04-20T07:10:49;100859.59;;;11.26;92.50
11710;BME280;5911;51.036;6.972;2023-04-20T07:13:17;100855.28;;;11.25;90.27
11710;BME280;5911;51.036;6.972;2023-04-20T07:15:45;100858.53;;;11.29;95.19
11710;BME280;5911;51.036;6.972;2023-04-20T07:18:14;100856.97;;;11.26;95.85
11710;BME280;5911;51.036;6.972;2023-04-20T07:20:42;100856.97;;;11.26;96.65
11710;BME280;5911;51.036;6.972;2023-04-20T07:23:10;100859.84;;;11.23;93.29
11710;BME280;5911;51.036;6.972;2023-04-20T07:25:37;100853.94;;;11.31;95.78
11710;BME280;5911;51.036;6.972;2023-04-20T07:28:05;100848.75;;;11.41;95.88
11710;BME280;5911;51.036;6.972;2023-04-20T07:30:33;100848.25;;;11.47;97.24
11710;BME280;5911;51.036;6.972;2023-04-20T07:33:01;100846.56;;;11.46;96.11
11710;BME280;5911;51.036;6.972;2023-04-20T07:35:31;100797.34;;;11.13;95.39
11710;BME280;5911;51.036;6.972;2023-04-20T07:37:58;100857.59;;;11.51;96.36
11710;BME280;5911;51.036;6.972;2023-04-20T07:40:26;100856.03;;;11.48;94.13
11710;BME280;5911;51.036;6.972;2023-04-20T07:42:54;100851.94;;;11.55;93.15
11710;BME280;5911;51.036;6.972;2023-04-20T07:45:22;100850.28;;;11.54;91.62
11710;BME280;5911;51.036;6.972;2023-04-20T07:47:50;100849.69;;;11.51;89.42
11710;BME280;5911;51.036;6.972;2023-04-20T07:50:19;100855.44;;;11.56;90.86
11710;BME280;5911;51.036;6.972;2023-04-20T07:52:49;100842.81;;;11.59;90.50
11710;BME280;5911;51.036;6.972;2023-04-20T07:55:17;100848.47;;;11.55;89.86
11710;BME280;5911;51.036;6.972;2023-04-20T07:57:45;100837.44;;;11.50;87.32
11710;BME280;5911;51.036;6.972;2023-04-20T08:00:13;100848.94;;;11.60;87.04
11710;BME280;5911;51.036;6.972;2023-04-20T08:02:44;100843.59;;;11.71;86.38
11710;BME280;5911;51.036;6.972;2023-04-20T08:05:12;100847.94;;;11.72;86.19
11710;BME280;5911;51.036;6.972;2023-04-20T08:07:40;100845.16;;;11.74;87.21
11710;BME280;5911;51.036;6.972;2023-04-20T08:10:10;100849.94;;;11.80;88.46
11710;BME280;5911;51.036;6.972;2023-04-20T08:12:38;100840.00;;;11.72;87.24
11710;BME280;5911;51.036;6.972;2023-04-20T08:15:07;100838.53;;;11.79;85.42
11710;BME280;5911;51.036;6.972;2023-04-20T08:17:35;100839.38;;;11.80;84.93
11710;BME280;5911;51.036;6.972;2023-04-20T08:20:04;100838.53;;;11.79;85.14
11710;BME280;5911;51.036;6.972;2023-04-20T08:22:33;100834.94;;;11.80;83.20
11710;BME280;5911;51.036;6.972;2023-04-20T08:25:01;100838.53;;;11.79;83.85
11710;BME280;5911;51.036;6.972;2023-04-20T08:27:30;100842.97;;;11.79;83.44
11710;BME280;5911;51.036;6.972;2023-04-20T08:29:58;100831.69;;;11.77;84.19
11710;BME280;5911;51.036;6.972;2023-04-20T08:32:26;100840.09;;;11.82;85.20
11710;BME280;5911;51.036;6.972;2023-04-20T08:34:54;100821.00;;;11.78;85.25
11710;BME280;5911;51.036;6.972;2023-04-20T08:37:22;100833.00;;;11.82;83.55
11710;BME280;5911;51.036;6.972;2023-04-20T08:39:51;100831.69;;;11.77;81.19
11710;BME280;5911;51.036;6.972;2023-04-20T08:42:18;100836.03;;;11.78;79.13
11710;BME280;5911;51.036;6.972;2023-04-20T08:44:48;100838.81;;;11.76;78.62
11710;BME280;5911;51.036;6.972;2023-04-20T08:47:15;100832.41;;;11.79;79.18
11710;BME280;5911;51.036;6.972;2023-04-20T08:49:43;100828.81;;;11.80;78.98
11710;BME280;5911;51.036;6.972;2023-04-20T08:52:11;100833.00;;;11.82;78.18
11710;BME280;5911;51.036;6.972;2023-04-20T08:54:39;100828.31;;;11.86;79.10
11710;BME280;5911;51.036;6.972;2023-04-20T08:57:21;100823.84;;;11.86;74.09
11710;BME280;5911;51.036;6.972;2023-04-20T08:59:51;100825.59;;;11.97;73.23
11710;BME280;5911;51.036;6.972;2023-04-20T09:02:18;100829.41;;;12.04;74.72
11710;BME280;5911;51.036;6.972;2023-04-20T09:04:47;100824.94;;;12.25;77.18
11710;BME280;5911;51.036;6.972;2023-04-20T09:07:17;100821.41;;;12.46;75.98
11710;BME280;5911;51.036;6.972;2023-04-20T09:09:54;100817.56;;;12.59;76.26
11710;BME280;5911;51.036;6.972;2023-04-20T09:12:23;100820.81;;;12.73;75.53
11710;BME280;5911;51.036;6.972;2023-04-20T09:14:52;100816.00;;;12.87;76.59
11710;BME280;5911;51.036;6.972;2023-04-20T09:17:31;100821.03;;;12.90;76.41
11710;BME280;5911;51.036;6.972;2023-04-20T09:20:00;100814.91;;;12.90;72.09
11710;BME280;5911;51.036;6.972;2023-04-20T09:22:28;100801.53;;;13.01;74.18
11710;BME280;5911;51.036;6.972;2023-04-20T09:24:57;100803.53;;;13.09;75.60
11710;BME280;5911;51.036;6.972;2023-04-20T09:27:24;100806.16;;;13.09;73.09
11710;BME280;5911;51.036;6.972;2023-04-20T09:29:58;100803.56;;;13.18;73.68
11710;BME280;5911;51.036;6.972;2023-04-20T09:32:27;100804.00;;;13.23;72.28
11710;BME280;5911;51.036;6.972;2023-04-20T09:34:55;100798.09;;;13.10;71.08
11710;BME280;5911;51.036;6.972;2023-04-20T09:37:23;100796.25;;;13.01;69.71
11710;BME280;5911;51.036;6.972;2023-04-20T09:39:53;100807.34;;;12.85;67.31
11710;BME280;5911;51.036;6.972;2023-04-20T09:42:24;100810.56;;;12.79;67.08
11710;BME280;5911;51.036;6.972;2023-04-20T09:44:54;100796.31;;;12.71;69.52
11710;BME280;5911;51.036;6.972;2023-04-20T09:47:23;100797.81;;;12.63;69.50
11710;BME280;5911;51.036;6.972;2023-04-20T09:49:53;100806.16;;;12.59;69.39
11710;BME280;5911;51.036;6.972;2023-04-20T09:52:23;100812.81;;;12.53;67.79
11710;BME280;5911;51.036;6.972;2023-04-20T09:54:53;100811.41;;;12.49;70.39
11710;BME280;5911;51.036;6.972;2023-04-20T09:57:22;100801.34;;;12.43;71.02
11710;BME280;5911;51.036;6.972;2023-04-20T09:59:53;100807.34;;;12.45;70.05
11710;BME280;5911;51.036;6.972;2023-04-20T10:02:21;100815.28;;;12.45;69.65
11710;BME280;5911;51.036;6.972;2023-04-20T10:04:54;100826.97;;;12.43;80.63
11710;BME280;5911;51.036;6.972;2023-04-20T10:07:23;100820.06;;;12.21;89.09
11710;BME280;5911;51.036;6.972;2023-04-20T10:10:02;100809.28;;;12.13;93.49
11710;BME280;5911;51.036;6.972;2023-04-20T10:12:30;100804.88;;;12.23;97.64
11710;BME280;5911;51.036;6.972;2023-04-20T10:14:58;100803.13;;;12.33;97.90
11710;BME280;5911;51.036;6.972;2023-04-20T10:17:30;100798.09;;;12.60;95.51
11710;BME280;5911;51.036;6.972;2023-04-20T10:20:00;100800.38;;;12.84;92.74
11710;BME280;5911;51.036;6.972;2023-04-20T10:22:31;100791.28;;;13.17;91.91
11710;BME280;5911;51.036;6.972;2023-04-20T10:24:59;100791.44;;;13.25;90.95
11710;BME280;5911;51.036;6.972;2023-04-20T10:27:27;100801.50;;;13.70;88.87
11710;BME280;5911;51.036;6.972;2023-04-20T10:30:08;100785.41;;;13.91;86.05
11710;BME280;5911;51.036;6.972;2023-04-20T10:32:36;100778.28;;;13.91;83.80
11710;BME280;5911;51.036;6.972;2023-04-20T10:35:09;100777.59;;;13.80;84.18
11710;BME280;5911;51.036;6.972;2023-04-20T10:37:46;100776.94;;;13.68;82.42
11710;BME280;5911;51.036;6.972;2023-04-20T10:40:14;100770.13;;;13.56;83.89
11710;BME280;5911;51.036;6.972;2023-04-20T10:42:42;100771.78;;;13.47;86.88
11710;BME280;5911;51.036;6.972;2023-04-20T10:45:10;100763.41;;;13.23;79.05
11710;BME280;5911;51.036;6.972;2023-04-20T10:47:39;100770.09;;;13.17;81.42
11710;BME280;5911;51.036;6.972;2023-04-20T10:50:13;100780.44;;;13.40;81.85
11710;BME280;5911;51.036;6.972;2023-04-20T10:52:42;100777.50;;;13.43;78.79
11710;BME280;5911;51.036;6.972;2023-04-20T10:55:20;100769.69;;;13.41;78.71
11710;BME280;5911;51.036;6.972;2023-04-20T10:57:48;100782.94;;;13.31;74.97
11710;BME280;5911;51.036;6.972;2023-04-20T11:00:18;100775.38;;;13.17;74.85
11710;BME280;5911;51.036;6.972;2023-04-20T11:02:50;100784.81;;;13.00;74.37
11710;BME280;5911;51.036;6.972;2023-04-20T11:05:20;100778.28;;;13.04;77.54
11710;BME280;5911;51.036;6.972;2023-04-20T11:07:52;100784.69;;;13.02;75.71
11710;BME280;5911;51.036;6.972;2023-04-20T11:10:22;100782.72;;;12.94;76.12
11710;BME280;5911;51.036;6.972;2023-04-20T11:12:50;100776.41;;;12.86;76.23
11710;BME280;5911;51.036;6.972;2023-04-20T11:15:18;100788.28;;;13.01;77.61
11710;BME280;5911;51.036;6.972;2023-04-20T11:18:05;100785.41;;;13.14;75.12
11710;BME280;5911;51.036;6.972;2023-04-20T11:20:34;100781.53;;;13.37;76.62
11710;BME280;5911;51.036;6.972;2023-04-20T11:23:02;100778.63;;;14.25;72.12
11710;BME280;5911;51.036;6.972;2023-04-20T11:25:31;100776.19;;;14.78;66.90
11710;BME280;5911;51.036;6.972;2023-04-20T11:28:04;100766.56;;;14.40;69.84
11710;BME280;5911;51.036;6.972;2023-04-20T11:30:37;100771.41;;;14.18;70.18
11710;BME280;5911;51.036;6.972;2023-04-20T11:33:05;100765.00;;;13.91;70.00
11710;BME280;5911;51.036;6.972;2023-04-20T11:35:36;100761.72;;;13.70;70.49
11710;BME280;5911;51.036;6.972;2023-04-20T11:38:04;100755.56;;;13.60;71.72
11710;BME280;5911;51.036;6.972;2023-04-20T11:40:33;100778.19;;;13.54;71.56
11710;BME280;5911;51.036;6.972;2023-04-20T11:43:01;100773.72;;;13.45;68.29
11710;BME280;5911;51.036;6.972;2023-04-20T11:45:31;100768.25;;;13.76;68.10
11710;BME280;5911;51.036;6.972;2023-04-20T11:48:03;100774.59;;;14.12;63.47
11710;BME280;5911;51.036;6.972;2023-04-20T11:50:31;100771.41;;;15.27;64.15
11710;BME280;5911;51.036;6.972;2023-04-20T11:53:00;100770.75;;;16.12;63.17
11710;BME280;5911;51.036;6.972;2023-04-20T11:55:28;100766.50;;;16.62;59.10
11710;BME280;5911;51.036;6.972;2023-04-20T11:57:56;100775.13;;;16.56;58.50
11710;BME280;5911;51.036;6.972;2023-04-20T12:00:24;100775.31;;;15.76;58.80
11710;BME280;5911;51.036;6.972;2023-04-20T12:02:52;100779.81;;;15.23;59.16
11710;BME280;5911;51.036;6.972;2023-04-20T12:05:20;100774.00;;;15.98;57.24
11710;BME280;5911;51.036;6.972;2023-04-20T12:07:48;100777.84;;;17.14;56.28
11710;BME280;5911;51.036;6.972;2023-04-20T12:10:17;100777.50;;;17.17;53.84
11710;BME280;5911;51.036;6.972;2023-04-20T12:12:45;100768.78;;;16.48;52.46
11710;BME280;5911;51.036;6.972;2023-04-20T12:15:13;100778.88;;;15.85;53.64
11710;BME280;5911;51.036;6.972;2023-04-20T12:17:41;100778.72;;;15.87;55.46
11710;BME280;5911;51.036;6.972;2023-04-20T12:20:09;100780.97;;;16.25;53.35
11710;BME280;5911;51.036;6.972;2023-04-20T12:22:38;100780.53;;;16.38;55.80
11710;BME280;5911;51.036;6.972;2023-04-20T12:25:07;100784.06;;;17.63;53.43
11710;BME280;5911;51.036;6.972;2023-04-20T12:27:36;100788.34;;;17.15;48.78
11710;BME280;5911;51.036;6.972;2023-04-20T12:30:05;100778.41;;;16.75;51.01
11710;BME280;5911;51.036;6.972;2023-04-20T12:32:34;100783.72;;;16.41;50.87
11710;BME280;5911;51.036;6.972;2023-04-20T12:35:02;100777.09;;;16.19;51.37
11710;BME280;5911;51.036;6.972;2023-04-20T12:37:30;100781.88;;;16.34;52.71
11710;BME280;5911;51.036;6.972;2023-04-20T12:39:58;100776.00;;;16.04;52.32
11710;BME280;5911;51.036;6.972;2023-04-20T12:42:26;100774.59;;;15.92;52.15
11710;BME280;5911;51.036;6.972;2023-04-20T12:44:55;100775.09;;;16.81;51.73
11710;BME280;5911;51.036;6.972;2023-04-20T12:47:23;100770.19;;;17.11;50.91
11710;BME280;5911;51.036;6.972;2023-04-20T12:49:51;100766.97;;;16.57;51.43
11710;BME280;5911;51.036;6.972;2023-04-20T12:52:19;100779.31;;;16.58;51.04
11710;BME280;5911;51.036;6.972;2023-04-20T12:54:47;100771.81;;;16.96;50.62
11710;BME280;5911;51.036;6.972;2023-04-20T12:57:16;100767.84;;;17.16;49.45
11710;BME280;5911;51.036;6.972;2023-04-20T12:59:44;100769.53;;;17.33;47.80
11710;BME280;5911;51.036;6.972;2023-04-20T13:02:16;100758.97;;;16.99;48.28
11710;BME280;5911;51.036;6.972;2023-04-20T13:04:44;100750.19;;;17.31;48.67
11710;BME280;5911;51.036;6.972;2023-04-20T13:07:12;100752.75;;;16.74;47.43
11710;BME280;5911;51.036;6.972;2023-04-20T13:09:40;100752.22;;;16.29;49.09